sensor_id;sensor_type;location;lat;lon;timestamp;temperature;humidity
4695;DHT22;2361;49.540;8.390;2023-10-09T00:02:11;16.30;99.90
4695;DHT22;2361;49.540;8.390;2023-10-09T00:04:38;16.20;99.90
4695;DHT22;2361;49.540;8.390;2023-10-09T00:07:09;16.20;99.90
4695;DHT22;2361;49.540;8.390;2023-10-09T00:09:40;16.20;99.90
4695;DHT22;2361;49.540;8.390;2023-10-09T00:12:19;16.20;99.90
4695;DHT22;2361;49.540;8.390;2023-10-09T00:14:51;16.20;99.90
4695;DHT22;2361;49.540;8.390;2023-10-09T00:17:22;16.20;99.90
4695;DHT22;2361;49.540;8.390;2023-10-09T00:19:50;16.10;99.90
4695;DHT22;2361;49.540;8.390;2023-10-09T00:22:26;16.10;99.90
4695;DHT22;2361;49.540;8.390;2023-10-09T00:24:56;16.10;99.90
4695;DHT22;2361;49.540;8.390;2023-10-09T00:27:43;16.10;99.90
4695;DHT22;2361;49.540;8.390;2023-10-09T00:30:14;16.10;99.90
4695;DHT22;2361;49.540;8.390;2023-10-09T00:32:48;16.10;99.90
4695;DHT22;2361;49.540;8.390;2023-10-09T00:35:37;16.10;99.90
4695;DHT22;2361;49.540;8.390;2023-10-09T00:38:11;16.10;99.90
4695;DHT22;2361;49.540;8.390;2023-10-09T00:40:58;16.10;99.90
4695;DHT22;2361;49.540;8.390;2023-10-09T00:43:38;16.10;99.90
4695;DHT22;2361;49.540;8.390;2023-10-09T00:46:09;16.10;99.90
4695;DHT22;2361;49.540;8.390;2023-10-09T00:48:54;16.10;99.90
4695;DHT22;2361;49.540;8.390;2023-10-09T00:51:23;16.00;99.90
4695;DHT22;2361;49.540;8.390;2023-10-09T00:53:56;16.10;99.90
4695;DHT22;2361;49.540;8.390;2023-10-09T00:56:35;16.10;99.90
4695;DHT22;2361;49.540;8.390;2023-10-09T00:59:07;16.10;99.90
4695;DHT22;2361;49.540;8.390;2023-10-09T01:01:46;16.10;99.90
4695;DHT22;2361;49.540;8.390;2023-10-09T01:04:24;16.10;99.90
4695;DHT22;2361;49.540;8.390;2023-10-09T01:06:59;16.10;99.90
4695;DHT22;2361;49.540;8.390;2023-10-09T01:09:43;16.10;99.90
4695;DHT22;2361;49.540;8.390;2023-10-09T01:12:11;16.10;99.90
4695;DHT22;2361;49.540;8.390;2023-10-09T01:14:45;16.10;99.90
4695;DHT22;2361;49.540;8.390;2023-10-09T01:17:13;16.10;99.90
4695;DHT22;2361;49.540;8.390;2023-10-09T01:19:55;16.10;99.90
4695;DHT22;2361;49.540;8.390;2023-10-09T01:22:24;16.10;99.90
4695;DHT22;2361;49.540;8.390;2023-10-09T01:24:51;16.10;99.90
4695;DHT22;2361;49.540;8.390;2023-10-09T01:27:22;16.10;99.90
4695;DHT22;2361;49.540;8.390;2023-10-09T01:29:52;16.10;99.90
4695;DHT22;2361;49.540;8.390;2023-10-09T01:32:19;16.10;99.90
4695;DHT22;2361;49.540;8.390;2023-10-09T01:34:47;16.10;99.90
4695;DHT22;2361;49.540;8.390;2023-10-09T01:37:20;16.10;99.90
4695;DHT22;2361;49.540;8.390;2023-10-09T01:39:54;16.10;99.90
4695;DHT22;2361;49.540;8.390;2023-10-09T01:42:26;16.10;99.90
4695;DHT22;2361;49.540;8.390;2023-10-09T01:45:14;16.10;99.90
4695;DHT22;2361;49.540;8.390;2023-10-09T01:47:47;16.10;99.90
4695;DHT22;2361;49.540;8.390;2023-10-09T01:50:24;16.10;99.90
4695;DHT22;2361;49.540;8.390;2023-10-09T01:52:57;16.10;99.90
4695;DHT22;2361;49.540;8.390;2023-10-09T01:55:30;16.10;99.90
4695;DHT22;2361;49.540;8.390;2023-10-09T01:58:09;16.00;99.90
4695;DHT22;2361;49.540;8.390;2023-10-09T02:00:51;16.00;99.90
4695;DHT22;2361;49.540;8.390;2023-10-09T02:03:25;16.00;99.90
4695;DHT22;2361;49.540;8.390;2023-10-09T02:05:56;16.00;99.90
4695;DHT22;2361;49.540;8.390;2023-10-09T02:08:26;16.00;99.90
4695;DHT22;2361;49.540;8.390;2023-10-09T02:11:02;16.00;99.90
4695;DHT22;2361;49.540;8.390;2023-10-09T02:13:30;15.90;99.90
4695;DHT22;2361;49.540;8.390;2023-10-09T02:15:58;15.90;99.90
4695;DHT22;2361;49.540;8.390;2023-10-09T02:18:39;15.90;99.90
4695;DHT22;2361;49.540;8.390;2023-10-09T02:21:07;16.00;99.90
4695;DHT22;2361;49.540;8.390;2023-10-09T02:23:35;16.00;99.90
4695;DHT22;2361;49.540;8.390;2023-10-09T02:26:08;16.00;99.90
4695;DHT22;2361;49.540;8.390;2023-10-09T02:28:46;16.10;99.90
4695;DHT22;2361;49.540;8.390;2023-10-09T02:31:26;16.10;99.90
4695;DHT22;2361;49.540;8.390;2023-10-09T02:34:02;16.10;99.90
4695;DHT22;2361;49.540;8.390;2023-10-09T02:36:31;16.10;99.90
4695;DHT22;2361;49.540;8.390;2023-10-09T02:39:01;16.10;99.90
4695;DHT22;2361;49.540;8.390;2023-10-09T02:41:32;16.20;99.90
4695;DHT22;2361;49.540;8.390;2023-10-09T02:44:01;16.20;99.90
4695;DHT22;2361;49.540;8.390;2023-10-09T02:46:37;16.10;99.90
4695;DHT22;2361;49.540;8.390;2023-10-09T02:49:06;16.20;99.90
4695;DHT22;2361;49.540;8.390;2023-10-09T02:51:36;16.20;99.90
4695;DHT22;2361;49.540;8.390;2023-10-09T02:54:08;16.20;99.90
4695;DHT22;2361;49.540;8.390;2023-10-09T02:56:46;16.10;99.90
4695;DHT22;2361;49.540;8.390;2023-10-09T02:59:32;16.10;99.90
4695;DHT22;2361;49.540;8.390;2023-10-09T03:02:00;16.10;99.90
4695;DHT22;2361;49.540;8.390;2023-10-09T03:04:28;16.10;99.90
4695;DHT22;2361;49.540;8.390;2023-10-09T03:06:58;16.20;99.90
4695;DHT22;2361;49.540;8.390;2023-10-09T03:09:26;16.20;99.90
4695;DHT22;2361;49.540;8.390;2023-10-09T03:11:56;16.20;99.90
4695;DHT22;2361;49.540;8.390;2023-10-09T03:14:35;16.20;99.90
4695;DHT22;2361;49.540;8.390;2023-10-09T03:17:05;16.10;99.90
4695;DHT22;2361;49.540;8.390;2023-10-09T03:19:33;16.10;99.90
4695;DHT22;2361;49.540;8.390;2023-10-09T03:22:10;16.10;99.90
4695;DHT22;2361;49.540;8.390;2023-10-09T03:24:41;16.10;99.90
4695;DHT22;2361;49.540;8.390;2023-10-09T03:27:14;16.10;99.90
4695;DHT22;2361;49.540;8.390;2023-10-09T03:29:41;16.10;99.90
4695;DHT22;2361;49.540;8.390;2023-10-09T03:32:08;16.00;99.90
4695;DHT22;2361;49.540;8.390;2023-10-09T03:34:35;16.00;99.90
4695;DHT22;2361;49.540;8.390;2023-10-09T03:37:02;16.00;99.90
4695;DHT22;2361;49.540;8.390;2023-10-09T03:39:33;16.00;99.90
4695;DHT22;2361;49.540;8.390;2023-10-09T03:42:01;15.90;99.90
4695;DHT22;2361;49.540;8.390;2023-10-09T03:44:32;15.90;99.90
4695;DHT22;2361;49.540;8.390;2023-10-09T03:47:01;15.80;99.90
4695;DHT22;2361;49.540;8.390;2023-10-09T03:49:31;15.80;99.90
4695;DHT22;2361;49.540;8.390;2023-10-09T03:51:58;15.80;99.90
4695;DHT22;2361;49.540;8.390;2023-10-09T03:54:26;15.80;99.90
4695;DHT22;2361;49.540;8.390;2023-10-09T03:56:56;15.70;99.90
4695;DHT22;2361;49.540;8.390;2023-10-09T03:59:25;15.70;99.90
4695;DHT22;2361;49.540;8.390;2023-10-09T04:01:57;15.60;99.90
4695;DHT22;2361;49.540;8.390;2023-10-09T04:04:25;15.60;99.90
4695;DHT22;2361;49.540;8.390;2023-10-09T04:06:54;15.70;99.90
4695;DHT22;2361;49.540;8.390;2023-10-09T04:09:21;15.70;99.90
4695;DHT22;2361;49.540;8.390;2023-10-09T04:11:49;15.60;99.90
4695;DHT22;2361;49.540;8.390;2023-10-09T04:14:42;15.60;99.90
4695;DHT22;2361;49.540;8.390;2023-10-09T04:17:22;15.60;99.90
4695;DHT22;2361;49.540;8.390;2023-10-09T04:20:03;15.50;99.90
4695;DHT22;2361;49.540;8.390;2023-10-09T04:23:01;15.50;99.90
4695;DHT22;2361;49.540;8.390;2023-10-09T04:25:32;15.40;99.90
4695;DHT22;2361;49.540;8.390;2023-10-09T04:28:10;15.40;99.90
4695;DHT22;2361;49.540;8.390;2023-10-09T04:30:46;15.40;99.90
4695;DHT22;2361;49.540;8.390;2023-10-09T04:33:14;15.40;99.90
4695;DHT22;2361;49.540;8.390;2023-10-09T04:36:08;15.40;99.90
4695;DHT22;2361;49.540;8.390;2023-10-09T04:38:43;15.40;99.90
4695;DHT22;2361;49.540;8.390;2023-10-09T04:41:26;15.50;99.90
4695;DHT22;2361;49.540;8.390;2023-10-09T04:44:00;15.50;99.90
4695;DHT22;2361;49.540;8.390;2023-10-09T04:46:46;15.50;99.90
4695;DHT22;2361;49.540;8.390;2023-10-09T04:49:33;15.60;99.90
4695;DHT22;2361;49.540;8.390;2023-10-09T04:52:16;15.50;99.90
4695;DHT22;2361;49.540;8.390;2023-10-09T04:55:09;15.50;99.90
4695;DHT22;2361;49.540;8.390;2023-10-09T04:57:38;15.50;99.90
4695;DHT22;2361;49.540;8.390;2023-10-09T05:00:13;15.50;99.90
4695;DHT22;2361;49.540;8.390;2023-10-09T05:05:27;15.60;99.90
4695;DHT22;2361;49.540;8.390;2023-10-09T05:11:03;15.50;99.90
4695;DHT22;2361;49.540;8.390;2023-10-09T05:13:31;15.60;99.90
4695;DHT22;2361;49.540;8.390;2023-10-09T05:16:18;15.60;99.90
4695;DHT22;2361;49.540;8.390;2023-10-09T05:18:48;15.70;99.90
4695;DHT22;2361;49.540;8.390;2023-10-09T05:21:35;15.70;99.90
4695;DHT22;2361;49.540;8.390;2023-10-09T05:24:04;15.70;99.90
4695;DHT22;2361;49.540;8.390;2023-10-09T05:26:47;15.70;99.90
4695;DHT22;2361;49.540;8.390;2023-10-09T05:29:22;15.70;99.90
4695;DHT22;2361;49.540;8.390;2023-10-09T05:32:04;15.70;99.90
4695;DHT22;2361;49.540;8.390;2023-10-09T05:34:42;15.70;99.90
4695;DHT22;2361;49.540;8.390;2023-10-09T05:37:30;15.70;99.90
4695;DHT22;2361;49.540;8.390;2023-10-09T05:40:03;15.70;99.90
4695;DHT22;2361;49.540;8.390;2023-10-09T05:42:49;15.70;99.90
4695;DHT22;2361;49.540;8.390;2023-10-09T05:45:26;15.70;99.90
4695;DHT22;2361;49.540;8.390;2023-10-09T05:48:12;15.60;99.90
4695;DHT22;2361;49.540;8.390;2023-10-09T05:50:40;15.70;99.90
4695;DHT22;2361;49.540;8.390;2023-10-09T05:53:25;15.70;99.90
4695;DHT22;2361;49.540;8.390;2023-10-09T05:56:13;15.70;99.90
4695;DHT22;2361;49.540;8.390;2023-10-09T05:58:58;15.70;99.90
4695;DHT22;2361;49.540;8.390;2023-10-09T06:01:44;15.70;99.90
4695;DHT22;2361;49.540;8.390;2023-10-09T06:04:18;15.70;99.90
4695;DHT22;2361;49.540;8.390;2023-10-09T06:06:46;15.60;99.90
4695;DHT22;2361;49.540;8.390;2023-10-09T06:09:22;15.60;99.90
4695;DHT22;2361;49.540;8.390;2023-10-09T06:11:50;15.50;99.90
4695;DHT22;2361;49.540;8.390;2023-10-09T06:14:23;15.40;99.90
4695;DHT22;2361;49.540;8.390;2023-10-09T06:17:13;15.40;99.90
4695;DHT22;2361;49.540;8.390;2023-10-09T06:19:40;15.50;99.90
4695;DHT22;2361;49.540;8.390;2023-10-09T06:22:10;15.50;99.90
4695;DHT22;2361;49.540;8.390;2023-10-09T06:25:09;15.50;99.90
4695;DHT22;2361;49.540;8.390;2023-10-09T06:27:38;15.50;99.90
4695;DHT22;2361;49.540;8.390;2023-10-09T06:30:23;15.50;99.90
4695;DHT22;2361;49.540;8.390;2023-10-09T06:32:51;15.50;99.90
4695;DHT22;2361;49.540;8.390;2023-10-09T06:35:21;15.50;99.90
4695;DHT22;2361;49.540;8.390;2023-10-09T06:37:49;15.60;99.90
4695;DHT22;2361;49.540;8.390;2023-10-09T06:40:30;15.60;99.90
4695;DHT22;2361;49.540;8.390;2023-10-09T06:43:21;15.60;99.90
4695;DHT22;2361;49.540;8.390;2023-10-09T06:45:53;15.60;99.90
4695;DHT22;2361;49.540;8.390;2023-10-09T06:48:22;15.60;99.90
4695;DHT22;2361;49.540;8.390;2023-10-09T06:51:09;15.60;99.90
4695;DHT22;2361;49.540;8.390;2023-10-09T06:54:02;15.60;99.90
4695;DHT22;2361;49.540;8.390;2023-10-09T06:56:36;15.60;99.90
4695;DHT22;2361;49.540;8.390;2023-10-09T06:59:05;15.50;99.90
4695;DHT22;2361;49.540;8.390;2023-10-09T07:01:51;15.60;99.90
4695;DHT22;2361;49.540;8.390;2023-10-09T07:04:37;15.60;99.90
4695;DHT22;2361;49.540;8.390;2023-10-09T07:07:04;15.60;99.90
4695;DHT22;2361;49.540;8.390;2023-10-09T07:09:39;15.70;99.90
4695;DHT22;2361;49.540;8.390;2023-10-09T07:12:10;15.70;99.90
4695;DHT22;2361;49.540;8.390;2023-10-09T07:14:41;15.70;99.90
4695;DHT22;2361;49.540;8.390;2023-10-09T07:17:08;15.80;99.90
4695;DHT22;2361;49.540;8.390;2023-10-09T07:19:54;15.80;99.90
4695;DHT22;2361;49.540;8.390;2023-10-09T07:22:22;15.80;99.90
4695;DHT22;2361;49.540;8.390;2023-10-09T07:27:25;15.90;99.90
4695;DHT22;2361;49.540;8.390;2023-10-09T07:30:15;16.00;99.90
4695;DHT22;2361;49.540;8.390;2023-10-09T07:33:09;16.00;99.90
4695;DHT22;2361;49.540;8.390;2023-10-09T07:35:39;16.10;99.90
4695;DHT22;2361;49.540;8.390;2023-10-09T07:38:21;16.10;99.90
4695;DHT22;2361;49.540;8.390;2023-10-09T07:40:51;16.20;99.90
4695;DHT22;2361;49.540;8.390;2023-10-09T07:43:23;16.20;99.90
4695;DHT22;2361;49.540;8.390;2023-10-09T07:45:56;16.30;99.90
4695;DHT22;2361;49.540;8.390;2023-10-09T07:48:26;16.40;99.90
4695;DHT22;2361;49.540;8.390;2023-10-09T07:50:53;16.40;99.90
4695;DHT22;2361;49.540;8.390;2023-10-09T07:53:24;16.40;99.90
4695;DHT22;2361;49.540;8.390;2023-10-09T07:55:55;16.40;99.90
4695;DHT22;2361;49.540;8.390;2023-10-09T07:58:33;16.40;99.90
4695;DHT22;2361;49.540;8.390;2023-10-09T08:01:16;16.50;99.90
4695;DHT22;2361;49.540;8.390;2023-10-09T08:03:49;16.50;99.90
4695;DHT22;2361;49.540;8.390;2023-10-09T08:06:31;16.50;99.90
4695;DHT22;2361;49.540;8.390;2023-10-09T08:09:30;16.50;99.90
4695;DHT22;2361;49.540;8.390;2023-10-09T08:12:14;16.60;99.90
4695;DHT22;2361;49.540;8.390;2023-10-09T08:15:06;16.50;99.90
4695;DHT22;2361;49.540;8.390;2023-10-09T08:17:53;16.60;99.90
4695;DHT22;2361;49.540;8.390;2023-10-09T08:20:26;16.60;99.90
4695;DHT22;2361;49.540;8.390;2023-10-09T08:22:55;16.70;99.90
4695;DHT22;2361;49.540;8.390;2023-10-09T08:25:23;16.70;99.90
4695;DHT22;2361;49.540;8.390;2023-10-09T08:27:59;16.80;99.90
4695;DHT22;2361;49.540;8.390;2023-10-09T08:30:48;17.00;99.90
4695;DHT22;2361;49.540;8.390;2023-10-09T08:33:17;17.10;99.90
4695;DHT22;2361;49.540;8.390;2023-10-09T08:35:56;17.30;99.90
4695;DHT22;2361;49.540;8.390;2023-10-09T08:38:34;17.40;99.90
4695;DHT22;2361;49.540;8.390;2023-10-09T08:41:11;17.50;99.90
4695;DHT22;2361;49.540;8.390;2023-10-09T08:43:48;17.70;99.90
4695;DHT22;2361;49.540;8.390;2023-10-09T08:46:24;17.80;99.90
4695;DHT22;2361;49.540;8.390;2023-10-09T08:48:56;17.90;99.90
4695;DHT22;2361;49.540;8.390;2023-10-09T08:51:26;18.10;99.90
4695;DHT22;2361;49.540;8.390;2023-10-09T08:53:55;18.20;99.90
4695;DHT22;2361;49.540;8.390;2023-10-09T08:56:23;18.30;99.90
4695;DHT22;2361;49.540;8.390;2023-10-09T08:58:58;18.40;99.90
4695;DHT22;2361;49.540;8.390;2023-10-09T09:01:29;18.50;99.90
4695;DHT22;2361;49.540;8.390;2023-10-09T09:03:59;18.40;99.90
4695;DHT22;2361;49.540;8.390;2023-10-09T09:06:39;18.50;99.90
4695;DHT22;2361;49.540;8.390;2023-10-09T09:09:11;18.50;99.90
4695;DHT22;2361;49.540;8.390;2023-10-09T09:11:42;18.50;99.90
4695;DHT22;2361;49.540;8.390;2023-10-09T09:14:15;18.40;99.90
4695;DHT22;2361;49.540;8.390;2023-10-09T09:16:49;18.50;99.90
4695;DHT22;2361;49.540;8.390;2023-10-09T09:19:16;18.60;99.90
4695;DHT22;2361;49.540;8.390;2023-10-09T09:21:50;18.50;99.90
4695;DHT22;2361;49.540;8.390;2023-10-09T09:24:22;18.60;99.90
4695;DHT22;2361;49.540;8.390;2023-10-09T09:26:50;18.70;99.90
4695;DHT22;2361;49.540;8.390;2023-10-09T09:32:11;18.60;99.90
4695;DHT22;2361;49.540;8.390;2023-10-09T09:34:52;18.60;99.90
4695;DHT22;2361;49.540;8.390;2023-10-09T09:37:28;18.60;99.90
4695;DHT22;2361;49.540;8.390;2023-10-09T09:39:59;18.70;99.90
4695;DHT22;2361;49.540;8.390;2023-10-09T09:42:43;18.80;99.90
4695;DHT22;2361;49.540;8.390;2023-10-09T09:45:15;19.00;99.90
4695;DHT22;2361;49.540;8.390;2023-10-09T09:47:44;19.20;99.90
4695;DHT22;2361;49.540;8.390;2023-10-09T09:50:19;19.50;99.90
4695;DHT22;2361;49.540;8.390;2023-10-09T09:52:55;19.70;99.90
4695;DHT22;2361;49.540;8.390;2023-10-09T09:55:33;19.80;99.90
4695;DHT22;2361;49.540;8.390;2023-10-09T09:58:02;19.80;99.90
4695;DHT22;2361;49.540;8.390;2023-10-09T10:00:35;19.70;99.90
4695;DHT22;2361;49.540;8.390;2023-10-09T10:03:15;19.70;99.90
4695;DHT22;2361;49.540;8.390;2023-10-09T10:05:47;19.60;99.90
4695;DHT22;2361;49.540;8.390;2023-10-09T10:08:20;19.60;99.90
4695;DHT22;2361;49.540;8.390;2023-10-09T10:10:48;19.60;99.90
4695;DHT22;2361;49.540;8.390;2023-10-09T10:13:55;19.50;99.90
4695;DHT22;2361;49.540;8.390;2023-10-09T10:16:27;19.50;99.90
4695;DHT22;2361;49.540;8.390;2023-10-09T10:19:03;19.40;99.90
4695;DHT22;2361;49.540;8.390;2023-10-09T10:21:34;19.50;99.90
4695;DHT22;2361;49.540;8.390;2023-10-09T10:29:45;19.50;99.90
4695;DHT22;2361;49.540;8.390;2023-10-09T10:32:12;19.50;99.90
4695;DHT22;2361;49.540;8.390;2023-10-09T10:34:54;19.50;99.90
4695;DHT22;2361;49.540;8.390;2023-10-09T10:37:37;19.60;99.90
4695;DHT22;2361;49.540;8.390;2023-10-09T10:40:23;19.60;99.90
4695;DHT22;2361;49.540;8.390;2023-10-09T10:43:16;19.70;99.90
4695;DHT22;2361;49.540;8.390;2023-10-09T10:46:03;19.90;99.90
4695;DHT22;2361;49.540;8.390;2023-10-09T10:48:51;20.00;99.90
4695;DHT22;2361;49.540;8.390;2023-10-09T10:51:35;20.10;99.90
4695;DHT22;2361;49.540;8.390;2023-10-09T10:54:05;20.10;99.90
4695;DHT22;2361;49.540;8.390;2023-10-09T10:56:52;20.20;99.90
4695;DHT22;2361;49.540;8.390;2023-10-09T10:59:19;20.30;99.90
4695;DHT22;2361;49.540;8.390;2023-10-09T11:01:56;20.40;99.90
4695;DHT22;2361;49.540;8.390;2023-10-09T11:04:29;20.50;99.90
4695;DHT22;2361;49.540;8.390;2023-10-09T11:07:00;20.60;99.90
4695;DHT22;2361;49.540;8.390;2023-10-09T11:09:48;20.70;99.90
4695;DHT22;2361;49.540;8.390;2023-10-09T11:15:09;20.80;99.90
4695;DHT22;2361;49.540;8.390;2023-10-09T11:18:08;20.90;99.90
4695;DHT22;2361;49.540;8.390;2023-10-09T11:20:40;21.00;99.90
4695;DHT22;2361;49.540;8.390;2023-10-09T11:23:21;21.00;99.90
4695;DHT22;2361;49.540;8.390;2023-10-09T11:26:07;21.00;99.90
4695;DHT22;2361;49.540;8.390;2023-10-09T11:29:09;21.00;99.90
4695;DHT22;2361;49.540;8.390;2023-10-09T11:34:28;21.10;99.90
4695;DHT22;2361;49.540;8.390;2023-10-09T11:37:00;21.10;99.90
4695;DHT22;2361;49.540;8.390;2023-10-09T11:39:39;21.20;99.90
4695;DHT22;2361;49.540;8.390;2023-10-09T11:42:27;21.30;99.90
4695;DHT22;2361;49.540;8.390;2023-10-09T11:45:22;21.40;99.90
4695;DHT22;2361;49.540;8.390;2023-10-09T11:47:55;21.50;99.90
4695;DHT22;2361;49.540;8.390;2023-10-09T11:50:46;21.60;99.90
4695;DHT22;2361;49.540;8.390;2023-10-09T11:53:23;21.70;99.90
4695;DHT22;2361;49.540;8.390;2023-10-09T11:55:51;21.80;99.90
4695;DHT22;2361;49.540;8.390;2023-10-09T11:58:21;21.90;99.90
4695;DHT22;2361;49.540;8.390;2023-10-09T12:00:55;22.00;99.90
4695;DHT22;2361;49.540;8.390;2023-10-09T12:03:26;22.00;99.90
4695;DHT22;2361;49.540;8.390;2023-10-09T12:05:57;22.10;99.90
4695;DHT22;2361;49.540;8.390;2023-10-09T12:08:32;22.10;99.90
4695;DHT22;2361;49.540;8.390;2023-10-09T12:11:01;22.20;99.90
4695;DHT22;2361;49.540;8.390;2023-10-09T12:13:30;22.20;99.90
4695;DHT22;2361;49.540;8.390;2023-10-09T12:15:57;22.30;99.90
4695;DHT22;2361;49.540;8.390;2023-10-09T12:18:24;22.20;99.90
4695;DHT22;2361;49.540;8.390;2023-10-09T12:20:52;22.20;99.90
4695;DHT22;2361;49.540;8.390;2023-10-09T12:23:21;22.20;99.90
4695;DHT22;2361;49.540;8.390;2023-10-09T12:25:50;22.30;99.90
4695;DHT22;2361;49.540;8.390;2023-10-09T12:28:17;22.40;99.90
4695;DHT22;2361;49.540;8.390;2023-10-09T12:30:48;22.40;99.90
4695;DHT22;2361;49.540;8.390;2023-10-09T12:33:19;22.40;99.90
4695;DHT22;2361;49.540;8.390;2023-10-09T12:35:55;22.50;99.90
4695;DHT22;2361;49.540;8.390;2023-10-09T12:38:29;22.50;99.90
4695;DHT22;2361;49.540;8.390;2023-10-09T12:41:06;22.50;99.90
4695;DHT22;2361;49.540;8.390;2023-10-09T12:43:53;22.50;99.90
4695;DHT22;2361;49.540;8.390;2023-10-09T12:46:21;22.60;99.90
4695;DHT22;2361;49.540;8.390;2023-10-09T12:48:52;22.60;99.90
4695;DHT22;2361;49.540;8.390;2023-10-09T12:51:22;22.70;99.90
4695;DHT22;2361;49.540;8.390;2023-10-09T12:53:56;22.70;99.90
4695;DHT22;2361;49.540;8.390;2023-10-09T12:56:27;22.80;99.90
4695;DHT22;2361;49.540;8.390;2023-10-09T12:59:05;22.90;99.90
4695;DHT22;2361;49.540;8.390;2023-10-09T13:01:33;23.00;99.90
4695;DHT22;2361;49.540;8.390;2023-10-09T13:04:13;23.10;99.90
4695;DHT22;2361;49.540;8.390;2023-10-09T13:06:45;23.20;99.10
4695;DHT22;2361;49.540;8.390;2023-10-09T13:09:16;23.30;98.40
4695;DHT22;2361;49.540;8.390;2023-10-09T13:12:04;23.40;97.60
4695;DHT22;2361;49.540;8.390;2023-10-09T13:14:34;23.50;96.10
4695;DHT22;2361;49.540;8.390;2023-10-09T13:17:02;23.60;95.50
4695;DHT22;2361;49.540;8.390;2023-10-09T13:19:36;23.70;95.20
4695;DHT22;2361;49.540;8.390;2023-10-09T13:22:03;23.80;94.80
4695;DHT22;2361;49.540;8.390;2023-10-09T13:24:39;23.90;95.70
4695;DHT22;2361;49.540;8.390;2023-10-09T13:27:06;24.00;95.50
4695;DHT22;2361;49.540;8.390;2023-10-09T13:29:37;24.00;95.10
4695;DHT22;2361;49.540;8.390;2023-10-09T13:32:08;24.00;94.60
4695;DHT22;2361;49.540;8.390;2023-10-09T13:34:41;24.00;94.90
4695;DHT22;2361;49.540;8.390;2023-10-09T13:37:11;24.10;95.20
4695;DHT22;2361;49.540;8.390;2023-10-09T13:39:43;24.10;94.80
4695;DHT22;2361;49.540;8.390;2023-10-09T13:42:19;24.10;94.90
4695;DHT22;2361;49.540;8.390;2023-10-09T13:44:51;24.10;95.10
4695;DHT22;2361;49.540;8.390;2023-10-09T13:47:20;24.10;95.10
4695;DHT22;2361;49.540;8.390;2023-10-09T13:49:48;24.10;95.20
4695;DHT22;2361;49.540;8.390;2023-10-09T13:52:19;24.10;95.40
4695;DHT22;2361;49.540;8.390;2023-10-09T13:54:48;24.10;95.70
4695;DHT22;2361;49.540;8.390;2023-10-09T13:57:16;24.10;95.90
4695;DHT22;2361;49.540;8.390;2023-10-09T13:59:43;24.20;95.60
4695;DHT22;2361;49.540;8.390;2023-10-09T14:02:16;24.20;95.40
4695;DHT22;2361;49.540;8.390;2023-10-09T14:04:47;24.20;95.60
4695;DHT22;2361;49.540;8.390;2023-10-09T14:07:15;24.20;95.50
4695;DHT22;2361;49.540;8.390;2023-10-09T14:09:47;24.20;95.40
4695;DHT22;2361;49.540;8.390;2023-10-09T14:12:33;24.30;95.10
4695;DHT22;2361;49.540;8.390;2023-10-09T14:15:01;24.30;95.00
4695;DHT22;2361;49.540;8.390;2023-10-09T14:17:30;24.30;94.90
4695;DHT22;2361;49.540;8.390;2023-10-09T14:19:57;24.30;94.80
4695;DHT22;2361;49.540;8.390;2023-10-09T14:22:48;24.30;94.80
4695;DHT22;2361;49.540;8.390;2023-10-09T14:25:19;24.30;94.60
4695;DHT22;2361;49.540;8.390;2023-10-09T14:27:48;24.30;94.40
4695;DHT22;2361;49.540;8.390;2023-10-09T14:30:15;24.30;94.50
4695;DHT22;2361;49.540;8.390;2023-10-09T14:32:49;24.20;94.40
4695;DHT22;2361;49.540;8.390;2023-10-09T14:35:22;24.20;94.50
4695;DHT22;2361;49.540;8.390;2023-10-09T14:37:53;24.20;94.60
4695;DHT22;2361;49.540;8.390;2023-10-09T14:40:20;24.20;94.70
4695;DHT22;2361;49.540;8.390;2023-10-09T14:42:48;24.20;94.60
4695;DHT22;2361;49.540;8.390;2023-10-09T14:45:21;24.20;94.70
4695;DHT22;2361;49.540;8.390;2023-10-09T14:47:48;24.20;94.90
4695;DHT22;2361;49.540;8.390;2023-10-09T14:50:15;24.20;94.90
4695;DHT22;2361;49.540;8.390;2023-10-09T14:52:42;24.20;94.80
4695;DHT22;2361;49.540;8.390;2023-10-09T14:55:09;24.10;94.90
4695;DHT22;2361;49.540;8.390;2023-10-09T14:57:36;24.10;95.10
4695;DHT22;2361;49.540;8.390;2023-10-09T15:00:04;24.10;95.40
4695;DHT22;2361;49.540;8.390;2023-10-09T15:02:37;24.00;95.40
4695;DHT22;2361;49.540;8.390;2023-10-09T15:05:05;24.00;95.00
4695;DHT22;2361;49.540;8.390;2023-10-09T15:07:37;24.00;95.00
4695;DHT22;2361;49.540;8.390;2023-10-09T15:10:07;24.00;94.90
4695;DHT22;2361;49.540;8.390;2023-10-09T15:12:36;23.90;94.70
4695;DHT22;2361;49.540;8.390;2023-10-09T15:15:09;23.80;94.40
4695;DHT22;2361;49.540;8.390;2023-10-09T15:17:41;23.80;94.90
4695;DHT22;2361;49.540;8.390;2023-10-09T15:20:11;23.80;94.70
4695;DHT22;2361;49.540;8.390;2023-10-09T15:22:42;23.80;95.00
4695;DHT22;2361;49.540;8.390;2023-10-09T15:25:10;23.80;95.00
4695;DHT22;2361;49.540;8.390;2023-10-09T15:27:44;23.70;95.20
4695;DHT22;2361;49.540;8.390;2023-10-09T15:30:11;23.70;95.20
4695;DHT22;2361;49.540;8.390;2023-10-09T15:32:42;23.70;95.40
4695;DHT22;2361;49.540;8.390;2023-10-09T15:35:10;23.60;95.40
4695;DHT22;2361;49.540;8.390;2023-10-09T15:37:39;23.60;95.60
4695;DHT22;2361;49.540;8.390;2023-10-09T15:40:08;23.50;95.70
4695;DHT22;2361;49.540;8.390;2023-10-09T15:42:43;23.50;95.80
4695;DHT22;2361;49.540;8.390;2023-10-09T15:45:10;23.50;95.80
4695;DHT22;2361;49.540;8.390;2023-10-09T15:47:38;23.40;95.50
4695;DHT22;2361;49.540;8.390;2023-10-09T15:50:06;23.40;95.30
4695;DHT22;2361;49.540;8.390;2023-10-09T15:52:38;23.40;94.80
4695;DHT22;2361;49.540;8.390;2023-10-09T15:55:08;23.40;94.10
4695;DHT22;2361;49.540;8.390;2023-10-09T15:57:41;23.40;94.10
4695;DHT22;2361;49.540;8.390;2023-10-09T16:00:09;23.30;93.90
4695;DHT22;2361;49.540;8.390;2023-10-09T16:02:41;23.30;93.80
4695;DHT22;2361;49.540;8.390;2023-10-09T16:05:09;23.30;93.50
4695;DHT22;2361;49.540;8.390;2023-10-09T16:07:39;23.30;94.00
4695;DHT22;2361;49.540;8.390;2023-10-09T16:10:07;23.20;94.10
4695;DHT22;2361;49.540;8.390;2023-10-09T16:12:37;23.10;94.10
4695;DHT22;2361;49.540;8.390;2023-10-09T16:15:05;23.10;94.30
4695;DHT22;2361;49.540;8.390;2023-10-09T16:17:33;23.10;94.30
4695;DHT22;2361;49.540;8.390;2023-10-09T16:20:00;23.00;94.40
4695;DHT22;2361;49.540;8.390;2023-10-09T16:22:28;22.90;94.70
4695;DHT22;2361;49.540;8.390;2023-10-09T16:24:58;22.90;94.70
4695;DHT22;2361;49.540;8.390;2023-10-09T16:27:26;22.90;94.60
4695;DHT22;2361;49.540;8.390;2023-10-09T16:29:54;22.80;94.60
4695;DHT22;2361;49.540;8.390;2023-10-09T16:32:21;22.70;94.40
4695;DHT22;2361;49.540;8.390;2023-10-09T16:34:50;22.60;94.30
4695;DHT22;2361;49.540;8.390;2023-10-09T16:37:17;22.50;94.10
4695;DHT22;2361;49.540;8.390;2023-10-09T16:39:51;22.50;94.00
4695;DHT22;2361;49.540;8.390;2023-10-09T16:42:20;22.40;93.40
4695;DHT22;2361;49.540;8.390;2023-10-09T16:44:50;22.40;93.20
4695;DHT22;2361;49.540;8.390;2023-10-09T16:47:17;22.30;93.20
4695;DHT22;2361;49.540;8.390;2023-10-09T16:49:45;22.20;93.30
4695;DHT22;2361;49.540;8.390;2023-10-09T16:52:18;22.10;93.00
4695;DHT22;2361;49.540;8.390;2023-10-09T16:54:45;22.10;92.70
4695;DHT22;2361;49.540;8.390;2023-10-09T16:57:12;22.00;92.50
4695;DHT22;2361;49.540;8.390;2023-10-09T16:59:39;22.00;92.40
4695;DHT22;2361;49.540;8.390;2023-10-09T17:02:08;21.90;92.50
4695;DHT22;2361;49.540;8.390;2023-10-09T17:04:39;21.90;92.40
4695;DHT22;2361;49.540;8.390;2023-10-09T17:07:06;21.90;92.10
4695;DHT22;2361;49.540;8.390;2023-10-09T17:09:41;21.90;92.10